sensor_id;sensor_type;location;lat;lon;timestamp;temperature;humidity
5200;DHT22;2619;47.868;11.892;2023-02-20T00:00:31;7.30;99.90
5200;DHT22;2619;47.868;11.892;2023-02-20T00:02:57;7.30;99.90
5200;DHT22;2619;47.868;11.892;2023-02-20T00:05:23;7.30;99.90
5200;DHT22;2619;47.868;11.892;2023-02-20T00:07:49;7.20;99.90
5200;DHT22;2619;47.868;11.892;2023-02-20T00:10:15;7.20;99.90
5200;DHT22;2619;47.868;11.892;2023-02-20T00:12:41;7.20;99.90
5200;DHT22;2619;47.868;11.892;2023-02-20T00:15:07;7.20;99.90
5200;DHT22;2619;47.868;11.892;2023-02-20T00:17:33;7.20;99.90
5200;DHT22;2619;47.868;11.892;2023-02-20T00:19:59;7.20;99.90
5200;DHT22;2619;47.868;11.892;2023-02-20T00:22:26;7.20;99.90
5200;DHT22;2619;47.868;11.892;2023-02-20T00:24:52;7.20;99.90
5200;DHT22;2619;47.868;11.892;2023-02-20T00:27:17;7.20;99.90
5200;DHT22;2619;47.868;11.892;2023-02-20T00:29:44;7.10;99.90
5200;DHT22;2619;47.868;11.892;2023-02-20T00:32:10;7.10;99.90
5200;DHT22;2619;47.868;11.892;2023-02-20T00:34:36;7.10;99.90
5200;DHT22;2619;47.868;11.892;2023-02-20T00:37:01;7.10;99.90
5200;DHT22;2619;47.868;11.892;2023-02-20T00:39:27;7.10;99.90
5200;DHT22;2619;47.868;11.892;2023-02-20T00:41:52;7.10;99.90
5200;DHT22;2619;47.868;11.892;2023-02-20T00:44:20;7.10;99.90
5200;DHT22;2619;47.868;11.892;2023-02-20T00:46:45;7.10;99.90
5200;DHT22;2619;47.868;11.892;2023-02-20T00:49:11;7.10;99.90
5200;DHT22;2619;47.868;11.892;2023-02-20T00:51:36;7.10;99.90
5200;DHT22;2619;47.868;11.892;2023-02-20T00:54:02;7.10;99.90
5200;DHT22;2619;47.868;11.892;2023-02-20T00:56:28;7.10;99.90
5200;DHT22;2619;47.868;11.892;2023-02-20T00:58:54;7.10;99.90
5200;DHT22;2619;47.868;11.892;2023-02-20T01:01:19;7.10;99.90
5200;DHT22;2619;47.868;11.892;2023-02-20T01:03:46;7.10;99.90
5200;DHT22;2619;47.868;11.892;2023-02-20T01:06:12;7.10;99.90
5200;DHT22;2619;47.868;11.892;2023-02-20T01:08:37;7.10;99.90
5200;DHT22;2619;47.868;11.892;2023-02-20T01:11:03;7.10;99.90
5200;DHT22;2619;47.868;11.892;2023-02-20T01:13:29;7.00;99.90
5200;DHT22;2619;47.868;11.892;2023-02-20T01:15:54;7.00;99.90
5200;DHT22;2619;47.868;11.892;2023-02-20T01:18:20;7.00;99.90
5200;DHT22;2619;47.868;11.892;2023-02-20T01:20:45;7.00;99.90
5200;DHT22;2619;47.868;11.892;2023-02-20T01:23:11;7.00;99.90
5200;DHT22;2619;47.868;11.892;2023-02-20T01:25:36;7.00;99.90
5200;DHT22;2619;47.868;11.892;2023-02-20T01:28:02;7.00;99.90
5200;DHT22;2619;47.868;11.892;2023-02-20T01:30:28;7.00;99.90
5200;DHT22;2619;47.868;11.892;2023-02-20T01:32:53;7.00;99.90
5200;DHT22;2619;47.868;11.892;2023-02-20T01:35:19;7.00;99.90
5200;DHT22;2619;47.868;11.892;2023-02-20T01:37:44;7.00;99.90
5200;DHT22;2619;47.868;11.892;2023-02-20T01:40:16;7.00;99.90
5200;DHT22;2619;47.868;11.892;2023-02-20T01:42:42;7.00;99.90
5200;DHT22;2619;47.868;11.892;2023-02-20T01:47:53;7.00;99.90
5200;DHT22;2619;47.868;11.892;2023-02-20T01:50:24;6.90;99.90
5200;DHT22;2619;47.868;11.892;2023-02-20T01:52:53;6.90;99.90
5200;DHT22;2619;47.868;11.892;2023-02-20T01:55:26;6.90;99.90
5200;DHT22;2619;47.868;11.892;2023-02-20T01:58:00;6.90;99.90
5200;DHT22;2619;47.868;11.892;2023-02-20T02:00:27;6.90;99.90
5200;DHT22;2619;47.868;11.892;2023-02-20T02:03:01;6.90;99.90
5200;DHT22;2619;47.868;11.892;2023-02-20T02:05:30;7.00;99.90
5200;DHT22;2619;47.868;11.892;2023-02-20T02:07:58;6.90;99.90
5200;DHT22;2619;47.868;11.892;2023-02-20T02:10:36;6.90;99.90
5200;DHT22;2619;47.868;11.892;2023-02-20T02:13:05;6.90;99.90
5200;DHT22;2619;47.868;11.892;2023-02-20T02:15:31;6.90;99.90
5200;DHT22;2619;47.868;11.892;2023-02-20T02:18:15;6.90;99.90
5200;DHT22;2619;47.868;11.892;2023-02-20T02:28:49;6.90;99.90
5200;DHT22;2619;47.868;11.892;2023-02-20T02:31:31;6.90;99.90
5200;DHT22;2619;47.868;11.892;2023-02-20T02:37:02;6.80;99.90
5200;DHT22;2619;47.868;11.892;2023-02-20T02:39:34;6.80;99.90
5200;DHT22;2619;47.868;11.892;2023-02-20T02:47:54;6.80;99.90
5200;DHT22;2619;47.868;11.892;2023-02-20T02:50:43;6.80;99.90
5200;DHT22;2619;47.868;11.892;2023-02-20T02:53:10;6.80;99.90
5200;DHT22;2619;47.868;11.892;2023-02-20T02:55:37;6.80;99.90
5200;DHT22;2619;47.868;11.892;2023-02-20T02:58:04;6.80;99.90
5200;DHT22;2619;47.868;11.892;2023-02-20T03:00:42;6.90;99.90
5200;DHT22;2619;47.868;11.892;2023-02-20T03:03:20;6.90;99.90
5200;DHT22;2619;47.868;11.892;2023-02-20T03:06:05;6.90;99.90
5200;DHT22;2619;47.868;11.892;2023-02-20T03:08:44;6.90;99.90
5200;DHT22;2619;47.868;11.892;2023-02-20T03:11:16;6.90;99.90
5200;DHT22;2619;47.868;11.892;2023-02-20T03:19:45;6.90;99.90
5200;DHT22;2619;47.868;11.892;2023-02-20T03:22:19;6.90;99.90
5200;DHT22;2619;47.868;11.892;2023-02-20T03:24:48;6.80;99.90
5200;DHT22;2619;47.868;11.892;2023-02-20T03:27:35;6.90;99.90
5200;DHT22;2619;47.868;11.892;2023-02-20T03:30:07;6.90;99.90
5200;DHT22;2619;47.868;11.892;2023-02-20T03:32:35;6.90;99.90
5200;DHT22;2619;47.868;11.892;2023-02-20T03:35:22;6.90;99.90
5200;DHT22;2619;47.868;11.892;2023-02-20T03:38:08;6.90;99.90
5200;DHT22;2619;47.868;11.892;2023-02-20T03:40:55;6.80;99.90
5200;DHT22;2619;47.868;11.892;2023-02-20T03:43:42;6.80;99.90
5200;DHT22;2619;47.868;11.892;2023-02-20T03:46:13;6.80;99.90
5200;DHT22;2619;47.868;11.892;2023-02-20T03:48:52;6.90;99.90
5200;DHT22;2619;47.868;11.892;2023-02-20T03:51:20;6.80;99.90
5200;DHT22;2619;47.868;11.892;2023-02-20T03:53:46;6.70;99.90
5200;DHT22;2619;47.868;11.892;2023-02-20T03:56:26;6.70;99.90
5200;DHT22;2619;47.868;11.892;2023-02-20T03:59:16;6.70;99.90
5200;DHT22;2619;47.868;11.892;2023-02-20T04:01:43;6.60;99.90
5200;DHT22;2619;47.868;11.892;2023-02-20T04:04:16;6.60;99.90
5200;DHT22;2619;47.868;11.892;2023-02-20T04:06:44;6.60;99.90
5200;DHT22;2619;47.868;11.892;2023-02-20T04:09:25;6.50;99.90
5200;DHT22;2619;47.868;11.892;2023-02-20T04:11:58;6.40;99.90
5200;DHT22;2619;47.868;11.892;2023-02-20T04:14:25;6.20;99.90
5200;DHT22;2619;47.868;11.892;2023-02-20T04:16:59;6.10;99.90
5200;DHT22;2619;47.868;11.892;2023-02-20T04:19:26;6.00;99.90
5200;DHT22;2619;47.868;11.892;2023-02-20T04:21:54;5.90;99.90
5200;DHT22;2619;47.868;11.892;2023-02-20T04:25:08;5.70;99.90
5200;DHT22;2619;47.868;11.892;2023-02-20T04:27:13;5.50;99.90
5200;DHT22;2619;47.868;11.892;2023-02-20T04:29:39;5.40;99.90
5200;DHT22;2619;47.868;11.892;2023-02-20T04:32:05;5.20;99.90
5200;DHT22;2619;47.868;11.892;2023-02-20T04:34:30;5.10;99.90
5200;DHT22;2619;47.868;11.892;2023-02-20T04:37:09;5.00;99.90
5200;DHT22;2619;47.868;11.892;2023-02-20T04:39:36;4.90;99.90
5200;DHT22;2619;47.868;11.892;2023-02-20T04:42:02;4.70;99.90
5200;DHT22;2619;47.868;11.892;2023-02-20T04:44:27;4.60;99.90
5200;DHT22;2619;47.868;11.892;2023-02-20T04:46:56;4.50;99.90
5200;DHT22;2619;47.868;11.892;2023-02-20T04:49:22;4.40;99.90
5200;DHT22;2619;47.868;11.892;2023-02-20T04:51:48;4.30;99.90
5200;DHT22;2619;47.868;11.892;2023-02-20T04:54:14;4.20;99.90
5200;DHT22;2619;47.868;11.892;2023-02-20T04:56:39;4.10;99.90
5200;DHT22;2619;47.868;11.892;2023-02-20T04:59:05;4.10;99.90
5200;DHT22;2619;47.868;11.892;2023-02-20T05:01:30;4.00;99.90
5200;DHT22;2619;47.868;11.892;2023-02-20T05:03:56;4.00;99.90
5200;DHT22;2619;47.868;11.892;2023-02-20T05:06:22;3.90;99.90
5200;DHT22;2619;47.868;11.892;2023-02-20T05:08:48;3.90;99.90
5200;DHT22;2619;47.868;11.892;2023-02-20T05:11:13;3.80;99.90
5200;DHT22;2619;47.868;11.892;2023-02-20T05:13:39;3.90;99.90
5200;DHT22;2619;47.868;11.892;2023-02-20T05:16:05;4.00;99.90
5200;DHT22;2619;47.868;11.892;2023-02-20T05:18:31;4.00;99.90
5200;DHT22;2619;47.868;11.892;2023-02-20T05:20:57;4.00;99.90
5200;DHT22;2619;47.868;11.892;2023-02-20T05:23:41;3.90;99.90
5200;DHT22;2619;47.868;11.892;2023-02-20T05:26:09;3.90;99.90
5200;DHT22;2619;47.868;11.892;2023-02-20T05:28:35;4.00;99.90
5200;DHT22;2619;47.868;11.892;2023-02-20T05:31:00;4.00;99.90
5200;DHT22;2619;47.868;11.892;2023-02-20T05:33:26;4.00;99.90
5200;DHT22;2619;47.868;11.892;2023-02-20T05:35:51;4.00;99.90
5200;DHT22;2619;47.868;11.892;2023-02-20T05:38:18;3.90;99.90
5200;DHT22;2619;47.868;11.892;2023-02-20T05:40:43;4.00;99.90
5200;DHT22;2619;47.868;11.892;2023-02-20T05:43:09;3.90;99.90
5200;DHT22;2619;47.868;11.892;2023-02-20T05:45:35;4.10;99.90
5200;DHT22;2619;47.868;11.892;2023-02-20T05:48:00;4.00;99.90
5200;DHT22;2619;47.868;11.892;2023-02-20T05:50:26;4.00;99.90
5200;DHT22;2619;47.868;11.892;2023-02-20T05:52:51;4.00;99.90
5200;DHT22;2619;47.868;11.892;2023-02-20T05:55:17;4.10;99.90
5200;DHT22;2619;47.868;11.892;2023-02-20T05:57:43;4.20;99.90
5200;DHT22;2619;47.868;11.892;2023-02-20T06:00:09;4.20;99.90
5200;DHT22;2619;47.868;11.892;2023-02-20T06:02:35;4.20;99.90
5200;DHT22;2619;47.868;11.892;2023-02-20T06:05:00;4.30;99.90
5200;DHT22;2619;47.868;11.892;2023-02-20T06:07:26;4.20;99.90
5200;DHT22;2619;47.868;11.892;2023-02-20T06:09:51;4.20;99.90
5200;DHT22;2619;47.868;11.892;2023-02-20T06:12:17;4.20;99.90
5200;DHT22;2619;47.868;11.892;2023-02-20T06:14:43;4.20;99.90
5200;DHT22;2619;47.868;11.892;2023-02-20T06:17:08;4.30;99.90
5200;DHT22;2619;47.868;11.892;2023-02-20T06:19:34;4.20;99.90
5200;DHT22;2619;47.868;11.892;2023-02-20T06:21:59;4.20;99.90
5200;DHT22;2619;47.868;11.892;2023-02-20T06:24:26;4.10;99.90
5200;DHT22;2619;47.868;11.892;2023-02-20T06:26:52;4.10;99.90
5200;DHT22;2619;47.868;11.892;2023-02-20T06:29:17;4.10;99.90
5200;DHT22;2619;47.868;11.892;2023-02-20T06:31:43;4.10;99.90
5200;DHT22;2619;47.868;11.892;2023-02-20T06:34:09;4.20;99.90
5200;DHT22;2619;47.868;11.892;2023-02-20T06:36:37;4.40;99.90
5200;DHT22;2619;47.868;11.892;2023-02-20T06:39:05;4.50;99.90
5200;DHT22;2619;47.868;11.892;2023-02-20T06:41:31;4.70;99.90
5200;DHT22;2619;47.868;11.892;2023-02-20T06:43:57;4.80;99.90
5200;DHT22;2619;47.868;11.892;2023-02-20T06:46:23;4.90;99.90
5200;DHT22;2619;47.868;11.892;2023-02-20T06:48:52;5.20;99.90
5200;DHT22;2619;47.868;11.892;2023-02-20T06:51:19;5.40;99.90
5200;DHT22;2619;47.868;11.892;2023-02-20T06:53:45;5.80;99.90
5200;DHT22;2619;47.868;11.892;2023-02-20T06:56:15;6.00;99.90
5200;DHT22;2619;47.868;11.892;2023-02-20T06:58:44;6.30;99.90
5200;DHT22;2619;47.868;11.892;2023-02-20T07:01:10;6.60;99.90
5200;DHT22;2619;47.868;11.892;2023-02-20T07:03:35;6.80;99.90
5200;DHT22;2619;47.868;11.892;2023-02-20T07:06:01;6.90;99.90
5200;DHT22;2619;47.868;11.892;2023-02-20T07:08:27;6.90;99.90
5200;DHT22;2619;47.868;11.892;2023-02-20T07:10:52;6.90;99.90
5200;DHT22;2619;47.868;11.892;2023-02-20T07:13:20;7.00;99.90
5200;DHT22;2619;47.868;11.892;2023-02-20T07:15:46;7.20;99.90
5200;DHT22;2619;47.868;11.892;2023-02-20T07:18:12;7.20;99.90
5200;DHT22;2619;47.868;11.892;2023-02-20T07:20:37;7.30;99.90
5200;DHT22;2619;47.868;11.892;2023-02-20T07:23:03;7.40;99.90
5200;DHT22;2619;47.868;11.892;2023-02-20T07:25:29;7.40;99.90
5200;DHT22;2619;47.868;11.892;2023-02-20T07:27:54;7.50;99.90
5200;DHT22;2619;47.868;11.892;2023-02-20T07:30:20;7.50;99.90
5200;DHT22;2619;47.868;11.892;2023-02-20T07:32:49;7.60;99.90
5200;DHT22;2619;47.868;11.892;2023-02-20T07:35:15;7.60;99.90
5200;DHT22;2619;47.868;11.892;2023-02-20T07:37:41;7.70;99.90
5200;DHT22;2619;47.868;11.892;2023-02-20T07:40:07;7.70;99.90
5200;DHT22;2619;47.868;11.892;2023-02-20T07:42:33;7.80;99.90
5200;DHT22;2619;47.868;11.892;2023-02-20T07:44:58;7.90;99.90
5200;DHT22;2619;47.868;11.892;2023-02-20T07:47:24;7.80;99.90
5200;DHT22;2619;47.868;11.892;2023-02-20T07:49:50;7.80;99.90
5200;DHT22;2619;47.868;11.892;2023-02-20T07:52:15;7.80;99.90
5200;DHT22;2619;47.868;11.892;2023-02-20T07:54:41;8.00;99.90
5200;DHT22;2619;47.868;11.892;2023-02-20T07:57:08;8.00;99.90
5200;DHT22;2619;47.868;11.892;2023-02-20T07:59:34;8.10;99.90
5200;DHT22;2619;47.868;11.892;2023-02-20T08:01:59;8.10;99.90
5200;DHT22;2619;47.868;11.892;2023-02-20T08:04:25;8.20;99.90
5200;DHT22;2619;47.868;11.892;2023-02-20T08:06:52;8.30;99.90
5200;DHT22;2619;47.868;11.892;2023-02-20T08:09:18;8.30;99.90
5200;DHT22;2619;47.868;11.892;2023-02-20T08:11:43;8.40;99.90
5200;DHT22;2619;47.868;11.892;2023-02-20T08:14:09;8.40;99.90
5200;DHT22;2619;47.868;11.892;2023-02-20T08:16:35;8.60;99.90
5200;DHT22;2619;47.868;11.892;2023-02-20T08:19:00;8.70;99.90
5200;DHT22;2619;47.868;11.892;2023-02-20T08:21:27;8.60;99.90
5200;DHT22;2619;47.868;11.892;2023-02-20T08:23:52;8.80;99.90
5200;DHT22;2619;47.868;11.892;2023-02-20T08:26:19;8.90;99.90
5200;DHT22;2619;47.868;11.892;2023-02-20T08:28:46;9.00;99.90
5200;DHT22;2619;47.868;11.892;2023-02-20T08:31:12;9.20;99.90
5200;DHT22;2619;47.868;11.892;2023-02-20T08:33:37;9.30;99.90
5200;DHT22;2619;47.868;11.892;2023-02-20T08:36:03;9.40;99.90
5200;DHT22;2619;47.868;11.892;2023-02-20T08:38:35;9.50;99.90
5200;DHT22;2619;47.868;11.892;2023-02-20T08:41:09;9.60;99.90
5200;DHT22;2619;47.868;11.892;2023-02-20T08:43:36;9.70;99.90
5200;DHT22;2619;47.868;11.892;2023-02-20T08:46:02;9.70;99.90
5200;DHT22;2619;47.868;11.892;2023-02-20T08:48:28;9.70;99.90
5200;DHT22;2619;47.868;11.892;2023-02-20T08:50:54;9.70;99.90
5200;DHT22;2619;47.868;11.892;2023-02-20T08:53:20;9.60;99.90
5200;DHT22;2619;47.868;11.892;2023-02-20T08:55:45;9.50;99.90
5200;DHT22;2619;47.868;11.892;2023-02-20T08:58:11;9.50;99.90
5200;DHT22;2619;47.868;11.892;2023-02-20T09:00:37;9.60;99.90
5200;DHT22;2619;47.868;11.892;2023-02-20T09:03:03;9.60;99.90
5200;DHT22;2619;47.868;11.892;2023-02-20T09:05:32;9.70;99.90
5200;DHT22;2619;47.868;11.892;2023-02-20T09:07:58;9.90;99.90
5200;DHT22;2619;47.868;11.892;2023-02-20T09:10:24;10.10;99.90
5200;DHT22;2619;47.868;11.892;2023-02-20T09:12:50;10.40;99.90
5200;DHT22;2619;47.868;11.892;2023-02-20T09:15:15;10.60;99.90
5200;DHT22;2619;47.868;11.892;2023-02-20T09:17:43;10.90;99.90
5200;DHT22;2619;47.868;11.892;2023-02-20T09:20:10;11.00;99.90
5200;DHT22;2619;47.868;11.892;2023-02-20T09:22:36;10.90;99.90
5200;DHT22;2619;47.868;11.892;2023-02-20T09:25:02;10.90;99.90
5200;DHT22;2619;47.868;11.892;2023-02-20T09:27:27;10.90;99.90
5200;DHT22;2619;47.868;11.892;2023-02-20T09:29:53;10.80;99.90
5200;DHT22;2619;47.868;11.892;2023-02-20T09:32:18;10.70;99.90
5200;DHT22;2619;47.868;11.892;2023-02-20T09:34:44;10.80;99.90
5200;DHT22;2619;47.868;11.892;2023-02-20T09:37:10;10.90;99.90
5200;DHT22;2619;47.868;11.892;2023-02-20T09:39:35;10.90;99.90
5200;DHT22;2619;47.868;11.892;2023-02-20T09:42:29;10.80;99.90
5200;DHT22;2619;47.868;11.892;2023-02-20T09:45:05;10.30;99.90
5200;DHT22;2619;47.868;11.892;2023-02-20T09:53:09;9.90;99.90
5200;DHT22;2619;47.868;11.892;2023-02-20T09:55:40;9.70;99.90
5200;DHT22;2619;47.868;11.892;2023-02-20T09:58:06;9.70;99.90
5200;DHT22;2619;47.868;11.892;2023-02-20T10:00:37;9.90;99.90
5200;DHT22;2619;47.868;11.892;2023-02-20T10:03:20;10.10;99.90
5200;DHT22;2619;47.868;11.892;2023-02-20T10:05:48;10.20;99.90
5200;DHT22;2619;47.868;11.892;2023-02-20T10:08:19;10.20;99.90
5200;DHT22;2619;47.868;11.892;2023-02-20T10:10:48;10.20;99.90
5200;DHT22;2619;47.868;11.892;2023-02-20T10:13:37;10.30;99.90
5200;DHT22;2619;47.868;11.892;2023-02-20T10:16:31;10.50;99.90
5200;DHT22;2619;47.868;11.892;2023-02-20T10:19:08;10.70;99.90
5200;DHT22;2619;47.868;11.892;2023-02-20T10:26:58;11.50;99.90
5200;DHT22;2619;47.868;11.892;2023-02-20T10:29:38;11.80;99.90
5200;DHT22;2619;47.868;11.892;2023-02-20T10:32:09;11.80;99.90
5200;DHT22;2619;47.868;11.892;2023-02-20T10:34:40;11.70;99.90
5200;DHT22;2619;47.868;11.892;2023-02-20T10:37:19;11.60;99.90
5200;DHT22;2619;47.868;11.892;2023-02-20T10:42:36;11.60;99.90
5200;DHT22;2619;47.868;11.892;2023-02-20T10:45:19;11.70;99.90
5200;DHT22;2619;47.868;11.892;2023-02-20T10:48:12;11.90;99.90
5200;DHT22;2619;47.868;11.892;2023-02-20T10:53:23;12.30;99.90
5200;DHT22;2619;47.868;11.892;2023-02-20T10:56:02;12.20;99.90
5200;DHT22;2619;47.868;11.892;2023-02-20T10:58:56;12.30;99.90
5200;DHT22;2619;47.868;11.892;2023-02-20T11:01:24;12.50;99.90
5200;DHT22;2619;47.868;11.892;2023-02-20T11:04:01;12.60;99.90
5200;DHT22;2619;47.868;11.892;2023-02-20T11:06:35;12.80;99.90
5200;DHT22;2619;47.868;11.892;2023-02-20T11:09:01;13.00;99.90
5200;DHT22;2619;47.868;11.892;2023-02-20T11:11:34;13.10;99.90
5200;DHT22;2619;47.868;11.892;2023-02-20T11:14:01;13.20;99.90
5200;DHT22;2619;47.868;11.892;2023-02-20T11:16:37;13.30;99.90
5200;DHT22;2619;47.868;11.892;2023-02-20T11:19:11;13.30;99.90
5200;DHT22;2619;47.868;11.892;2023-02-20T11:21:40;13.40;99.90
5200;DHT22;2619;47.868;11.892;2023-02-20T11:24:33;13.30;99.90
5200;DHT22;2619;47.868;11.892;2023-02-20T11:29:52;13.10;99.90
5200;DHT22;2619;47.868;11.892;2023-02-20T11:32:29;12.90;99.90
5200;DHT22;2619;47.868;11.892;2023-02-20T11:35:21;13.00;99.90
5200;DHT22;2619;47.868;11.892;2023-02-20T11:38:18;13.00;99.90
5200;DHT22;2619;47.868;11.892;2023-02-20T11:43:27;13.30;99.90
5200;DHT22;2619;47.868;11.892;2023-02-20T11:48:32;13.40;99.90
5200;DHT22;2619;47.868;11.892;2023-02-20T11:50:58;13.40;99.90
5200;DHT22;2619;47.868;11.892;2023-02-20T11:53:24;13.40;99.90
5200;DHT22;2619;47.868;11.892;2023-02-20T11:56:10;13.60;99.90
5200;DHT22;2619;47.868;11.892;2023-02-20T11:58:38;13.50;99.90
5200;DHT22;2619;47.868;11.892;2023-02-20T12:01:05;13.50;99.90
5200;DHT22;2619;47.868;11.892;2023-02-20T12:03:33;13.60;99.90
5200;DHT22;2619;47.868;11.892;2023-02-20T12:06:01;13.60;99.90
5200;DHT22;2619;47.868;11.892;2023-02-20T12:08:35;13.60;99.90
5200;DHT22;2619;47.868;11.892;2023-02-20T12:11:09;13.70;99.90
5200;DHT22;2619;47.868;11.892;2023-02-20T12:13:39;13.80;98.70
5200;DHT22;2619;47.868;11.892;2023-02-20T12:22:08;13.90;99.30
5200;DHT22;2619;47.868;11.892;2023-02-20T12:36:02;14.10;97.60
5200;DHT22;2619;47.868;11.892;2023-02-20T12:38:40;14.00;98.10
5200;DHT22;2619;47.868;11.892;2023-02-20T12:41:28;14.20;98.20
5200;DHT22;2619;47.868;11.892;2023-02-20T12:47:12;14.40;97.20
5200;DHT22;2619;47.868;11.892;2023-02-20T12:57:42;14.70;98.20
5200;DHT22;2619;47.868;11.892;2023-02-20T13:00:21;14.70;97.40
5200;DHT22;2619;47.868;11.892;2023-02-20T13:02:55;14.70;96.90
5200;DHT22;2619;47.868;11.892;2023-02-20T13:05:24;14.80;96.90
5200;DHT22;2619;47.868;11.892;2023-02-20T13:07:59;14.80;97.70
5200;DHT22;2619;47.868;11.892;2023-02-20T13:10:35;14.90;98.20
5200;DHT22;2619;47.868;11.892;2023-02-20T13:13:09;15.00;96.10
5200;DHT22;2619;47.868;11.892;2023-02-20T13:15:46;14.90;96.90
5200;DHT22;2619;47.868;11.892;2023-02-20T13:18:42;15.00;96.80
5200;DHT22;2619;47.868;11.892;2023-02-20T13:21:17;15.00;95.30
5200;DHT22;2619;47.868;11.892;2023-02-20T13:23:43;15.10;95.40
5200;DHT22;2619;47.868;11.892;2023-02-20T13:28:53;15.20;96.60
5200;DHT22;2619;47.868;11.892;2023-02-20T13:31:22;15.30;96.70
5200;DHT22;2619;47.868;11.892;2023-02-20T13:36:40;15.40;95.30
5200;DHT22;2619;47.868;11.892;2023-02-20T13:44:40;15.50;95.50
5200;DHT22;2619;47.868;11.892;2023-02-20T13:55:00;15.20;96.90
5200;DHT22;2619;47.868;11.892;2023-02-20T13:57:30;15.20;95.50
5200;DHT22;2619;47.868;11.892;2023-02-20T13:59:59;15.20;95.60
5200;DHT22;2619;47.868;11.892;2023-02-20T14:02:25;15.20;94.80
5200;DHT22;2619;47.868;11.892;2023-02-20T14:05:04;15.10;95.70
5200;DHT22;2619;47.868;11.892;2023-02-20T14:07:43;15.00;96.20
5200;DHT22;2619;47.868;11.892;2023-02-20T14:10:17;14.70;96.80
5200;DHT22;2619;47.868;11.892;2023-02-20T14:12:45;14.50;97.70
5200;DHT22;2619;47.868;11.892;2023-02-20T14:15:11;14.50;97.80
5200;DHT22;2619;47.868;11.892;2023-02-20T14:17:37;14.60;98.30
5200;DHT22;2619;47.868;11.892;2023-02-20T14:20:17;14.60;98.90
5200;DHT22;2619;47.868;11.892;2023-02-20T14:22:43;14.60;98.50
5200;DHT22;2619;47.868;11.892;2023-02-20T14:25:24;14.70;98.10
5200;DHT22;2619;47.868;11.892;2023-02-20T14:27:50;14.80;98.00
5200;DHT22;2619;47.868;11.892;2023-02-20T14:30:20;14.80;96.70
5200;DHT22;2619;47.868;11.892;2023-02-20T14:32:54;14.90;96.10
5200;DHT22;2619;47.868;11.892;2023-02-20T14:40:54;15.10;94.70
5200;DHT22;2619;47.868;11.892;2023-02-20T14:43:23;15.20;95.80
5200;DHT22;2619;47.868;11.892;2023-02-20T14:46:05;15.10;94.80
5200;DHT22;2619;47.868;11.892;2023-02-20T14:48:33;15.00;95.70
5200;DHT22;2619;47.868;11.892;2023-02-20T14:51:17;15.00;96.30
5200;DHT22;2619;47.868;11.892;2023-02-20T14:53:59;14.80;96.70
5200;DHT22;2619;47.868;11.892;2023-02-20T14:56:25;14.80;96.10
5200;DHT22;2619;47.868;11.892;2023-02-20T14:58:51;14.80;96.50
5200;DHT22;2619;47.868;11.892;2023-02-20T15:01:28;14.60;96.20
5200;DHT22;2619;47.868;11.892;2023-02-20T15:04:11;14.50;95.70
5200;DHT22;2619;47.868;11.892;2023-02-20T15:06:39;14.40;96.30
5200;DHT22;2619;47.868;11.892;2023-02-20T15:09:06;14.30;96.20
5200;DHT22;2619;47.868;11.892;2023-02-20T15:11:33;14.20;96.50
5200;DHT22;2619;47.868;11.892;2023-02-20T15:14:00;14.10;97.00
5200;DHT22;2619;47.868;11.892;2023-02-20T15:16:31;13.90;97.20
5200;DHT22;2619;47.868;11.892;2023-02-20T15:18:57;13.70;97.10
5200;DHT22;2619;47.868;11.892;2023-02-20T15:21:36;13.70;97.70
5200;DHT22;2619;47.868;11.892;2023-02-20T15:24:37;13.40;97.70
5200;DHT22;2619;47.868;11.892;2023-02-20T15:29:36;13.00;98.40
5200;DHT22;2619;47.868;11.892;2023-02-20T15:32:05;12.90;98.00
5200;DHT22;2619;47.868;11.892;2023-02-20T15:34:38;12.80;98.50
5200;DHT22;2619;47.868;11.892;2023-02-20T15:37:20;12.50;99.00
5200;DHT22;2619;47.868;11.892;2023-02-20T15:39:46;12.30;99.00
5200;DHT22;2619;47.868;11.892;2023-02-20T15:42:16;12.10;99.50
5200;DHT22;2619;47.868;11.892;2023-02-20T15:44:42;11.90;99.80
5200;DHT22;2619;47.868;11.892;2023-02-20T15:47:08;11.80;99.90
5200;DHT22;2619;47.868;11.892;2023-02-20T15:49:34;11.70;99.80
5200;DHT22;2619;47.868;11.892;2023-02-20T15:51:59;11.50;99.90
5200;DHT22;2619;47.868;11.892;2023-02-20T15:54:25;11.30;99.90
5200;DHT22;2619;47.868;11.892;2023-02-20T15:56:50;11.20;99.90
5200;DHT22;2619;47.868;11.892;2023-02-20T15:59:16;11.20;99.90
5200;DHT22;2619;47.868;11.892;2023-02-20T16:01:43;11.10;99.90
5200;DHT22;2619;47.868;11.892;2023-02-20T16:04:14;10.90;99.90
5200;DHT22;2619;47.868;11.892;2023-02-20T16:06:40;10.80;99.90
5200;DHT22;2619;47.868;11.892;2023-02-20T16:09:08;10.60;99.90
5200;DHT22;2619;47.868;11.892;2023-02-20T16:11:45;10.60;99.90
5200;DHT22;2619;47.868;11.892;2023-02-20T16:14:14;10.50;99.90
5200;DHT22;2619;47.868;11.892;2023-02-20T16:16:44;10.30;99.90
5200;DHT22;2619;47.868;11.892;2023-02-20T16:19:16;10.20;99.90
5200;DHT22;2619;47.868;11.892;2023-02-20T16:21:42;10.10;99.90
5200;DHT22;2619;47.868;11.892;2023-02-20T16:24:08;10.00;99.90
5200;DHT22;2619;47.868;11.892;2023-02-20T16:26:34;9.80;99.90
5200;DHT22;2619;47.868;11.892;2023-02-20T16:29:06;9.70;99.90
5200;DHT22;2619;47.868;11.892;2023-02-20T16:34:17;9.50;99.90
5200;DHT22;2619;47.868;11.892;2023-02-20T16:36:42;9.30;99.90
5200;DHT22;2619;47.868;11.892;2023-02-20T16:39:08;9.30;99.90
5200;DHT22;2619;47.868;11.892;2023-02-20T16:41:33;9.30;99.90
5200;DHT22;2619;47.868;11.892;2023-02-20T16:44:00;9.20;99.90
5200;DHT22;2619;47.868;11.892;2023-02-20T16:46:25;9.20;99.90
5200;DHT22;2619;47.868;11.892;2023-02-20T16:48:51;9.00;99.90
5200;DHT22;2619;47.868;11.892;2023-02-20T16:51:17;8.90;99.90
5200;DHT22;2619;47.868;11.892;2023-02-20T16:53:46;8.80;99.90
5200;DHT22;2619;47.868;11.892;2023-02-20T16:56:11;8.70;99.90
5200;DHT22;2619;47.868;11.892;2023-02-20T16:58:37;8.40;99.90
5200;DHT22;2619;47.868;11.892;2023-02-20T17:01:02;8.30;99.90
5200;DHT22;2619;47.868;11.892;2023-02-20T17:03:28;8.10;99.90
5200;DHT22;2619;47.868;11.892;2023-02-20T17:05:54;8.10;99.90
5200;DHT22;2619;47.868;11.892;2023-02-20T17:08:24;7.90;99.90
5200;DHT22;2619;47.868;11.892;2023-02-20T17:10:50;7.70;99.90
5200;DHT22;2619;47.868;11.892;2023-02-20T17:13:15;7.60;99.90
5200;DHT22;2619;47.868;11.892;2023-02-20T17:15:41;7.40;99.90
5200;DHT22;2619;47.868;11.892;2023-02-20T17:18:08;7.50;99.90
5200;DHT22;2619;47.868;11.892;2023-02-20T17:20:34;7.50;99.90
5200;DHT22;2619;47.868;11.892;2023-02-20T17:23:00;7.50;99.90
5200;DHT22;2619;47.868;11.892;2023-02-20T17:25:29;7.20;99.90
5200;DHT22;2619;47.868;11.892;2023-02-20T17:27:55;6.90;99.90
5200;DHT22;2619;47.868;11.892;2023-02-20T17:30:22;6.70;99.90
5200;DHT22;2619;47.868;11.892;2023-02-20T17:32:48;6.60;99.90
5200;DHT22;2619;47.868;11.892;2023-02-20T17:35:14;6.60;99.90
5200;DHT22;2619;47.868;11.892;2023-02-20T17:37:40;6.50;99.90
5200;DHT22;2619;47.868;11.892;2023-02-20T17:40:06;6.30;99.90
5200;DHT22;2619;47.868;11.892;2023-02-20T17:42:32;6.20;99.90
5200;DHT22;2619;47.868;11.892;2023-02-20T17:44:58;6.20;99.90
5200;DHT22;2619;47.868;11.892;2023-02-20T17:47:25;6.10;99.90
5200;DHT22;2619;47.868;11.892;2023-02-20T17:49:52;5.80;99.90
5200;DHT22;2619;47.868;11.892;2023-02-20T17:52:19;5.70;99.90
5200;DHT22;2619;47.868;11.892;2023-02-20T17:54:47;5.60;99.90
5200;DHT22;2619;47.868;11.892;2023-02-20T17:57:14;5.50;99.90
5200;DHT22;2619;47.868;11.892;2023-02-20T17:59:41;5.60;99.90